Terminal Aerodrome Forecast
Issued by NWS

Home | Current Version | Previous Version | Text Only | Print | Product List | Glossary On
Versions: 1 2 3 4 5 6 7 8 9 10 11 12 13 14 15 16 17 18
000
FTUS46 KMTR 211210 RRA
TAFSNS
TAF
KSNS 211210Z 2112/2212 15007KT P6SM VCSH SCT030 OVC040
      TEMPO 2112/2116 SHRA BKN025 OVC035
     FM211600 15006KT P6SM -SHRA SCT025 OVC050
     FM220000 16015G24KT P6SM -RA OVC040
     FM220600 14030G40KT 4SM RA OVC035 WS015/15060KT=

USA.gov is the U.S. government's official web portal to all federal, state and local government web resources and services.